sensor_id;sensor_type;location;lat;lon;timestamp;P1;durP1;ratioP1;P2;durP2;ratioP2
19127;SDS011;9696;53.686;10.094;2024-01-11T00:02:19;14.17;;;7.80;;
19127;SDS011;9696;53.686;10.094;2024-01-11T00:04:48;17.33;;;8.90;;
19127;SDS011;9696;53.686;10.094;2024-01-11T00:07:17;16.20;;;8.07;;
19127;SDS011;9696;53.686;10.094;2024-01-11T00:09:46;15.77;;;8.57;;
19127;SDS011;9696;53.686;10.094;2024-01-11T00:12:14;21.83;;;10.17;;
19127;SDS011;9696;53.686;10.094;2024-01-11T00:14:43;18.13;;;9.23;;
19127;SDS011;9696;53.686;10.094;2024-01-11T00:17:13;18.63;;;9.07;;
19127;SDS011;9696;53.686;10.094;2024-01-11T00:19:42;16.37;;;7.03;;
19127;SDS011;9696;53.686;10.094;2024-01-11T00:22:11;16.47;;;8.53;;
19127;SDS011;9696;53.686;10.094;2024-01-11T00:24:39;16.50;;;8.70;;
19127;SDS011;9696;53.686;10.094;2024-01-11T00:27:08;20.80;;;8.70;;
19127;SDS011;9696;53.686;10.094;2024-01-11T00:29:37;17.70;;;8.63;;
19127;SDS011;9696;53.686;10.094;2024-01-11T00:32:05;17.87;;;8.23;;
19127;SDS011;9696;53.686;10.094;2024-01-11T00:34:35;22.90;;;9.50;;
19127;SDS011;9696;53.686;10.094;2024-01-11T00:37:05;17.40;;;8.63;;
19127;SDS011;9696;53.686;10.094;2024-01-11T00:39:33;17.27;;;9.20;;
19127;SDS011;9696;53.686;10.094;2024-01-11T00:42:02;15.30;;;6.87;;
19127;SDS011;9696;53.686;10.094;2024-01-11T00:44:30;20.10;;;9.13;;
19127;SDS011;9696;53.686;10.094;2024-01-11T00:46:59;19.63;;;9.63;;
19127;SDS011;9696;53.686;10.094;2024-01-11T00:49:28;17.43;;;8.43;;
19127;SDS011;9696;53.686;10.094;2024-01-11T00:51:58;15.80;;;7.73;;
19127;SDS011;9696;53.686;10.094;2024-01-11T00:54:27;18.17;;;9.73;;
19127;SDS011;9696;53.686;10.094;2024-01-11T00:56:55;17.57;;;8.87;;
19127;SDS011;9696;53.686;10.094;2024-01-11T00:59:24;18.57;;;9.30;;
19127;SDS011;9696;53.686;10.094;2024-01-11T01:01:53;19.50;;;8.30;;
19127;SDS011;9696;53.686;10.094;2024-01-11T01:04:21;16.33;;;8.13;;
19127;SDS011;9696;53.686;10.094;2024-01-11T01:06:50;19.07;;;9.03;;
19127;SDS011;9696;53.686;10.094;2024-01-11T01:09:20;18.77;;;8.97;;
19127;SDS011;9696;53.686;10.094;2024-01-11T01:11:49;18.60;;;9.00;;
19127;SDS011;9696;53.686;10.094;2024-01-11T01:14:17;19.27;;;9.30;;
19127;SDS011;9696;53.686;10.094;2024-01-11T01:16:46;27.70;;;9.33;;
19127;SDS011;9696;53.686;10.094;2024-01-11T01:19:15;20.47;;;9.30;;
19127;SDS011;9696;53.686;10.094;2024-01-11T01:21:43;21.27;;;10.43;;
19127;SDS011;9696;53.686;10.094;2024-01-11T01:24:12;21.03;;;9.60;;
19127;SDS011;9696;53.686;10.094;2024-01-11T01:26:42;19.70;;;9.03;;
19127;SDS011;9696;53.686;10.094;2024-01-11T01:29:10;18.93;;;8.27;;
19127;SDS011;9696;53.686;10.094;2024-01-11T01:31:39;15.37;;;8.53;;
19127;SDS011;9696;53.686;10.094;2024-01-11T01:34:08;19.23;;;8.97;;
19127;SDS011;9696;53.686;10.094;2024-01-11T01:36:37;16.90;;;8.20;;
19127;SDS011;9696;53.686;10.094;2024-01-11T01:39:05;20.43;;;10.53;;
19127;SDS011;9696;53.686;10.094;2024-01-11T01:41:34;23.67;;;10.13;;
19127;SDS011;9696;53.686;10.094;2024-01-11T01:44:04;17.13;;;9.37;;
19127;SDS011;9696;53.686;10.094;2024-01-11T01:46:33;16.90;;;8.43;;
19127;SDS011;9696;53.686;10.094;2024-01-11T01:49:02;19.37;;;9.07;;
19127;SDS011;9696;53.686;10.094;2024-01-11T01:51:32;18.03;;;8.23;;
19127;SDS011;9696;53.686;10.094;2024-01-11T01:54:01;17.03;;;8.27;;
19127;SDS011;9696;53.686;10.094;2024-01-11T01:56:31;19.30;;;8.57;;
19127;SDS011;9696;53.686;10.094;2024-01-11T01:59:00;19.13;;;8.40;;
19127;SDS011;9696;53.686;10.094;2024-01-11T02:01:31;18.23;;;9.47;;
19127;SDS011;9696;53.686;10.094;2024-01-11T02:04:00;21.30;;;9.40;;
19127;SDS011;9696;53.686;10.094;2024-01-11T02:06:28;22.50;;;9.93;;
19127;SDS011;9696;53.686;10.094;2024-01-11T02:08:58;19.43;;;9.27;;
19127;SDS011;9696;53.686;10.094;2024-01-11T02:11:27;22.30;;;9.13;;
19127;SDS011;9696;53.686;10.094;2024-01-11T02:13:56;19.27;;;9.87;;
19127;SDS011;9696;53.686;10.094;2024-01-11T02:16:25;19.07;;;8.47;;
19127;SDS011;9696;53.686;10.094;2024-01-11T02:18:55;19.67;;;9.60;;
19127;SDS011;9696;53.686;10.094;2024-01-11T02:21:23;21.33;;;9.43;;
19127;SDS011;9696;53.686;10.094;2024-01-11T02:23:58;19.77;;;9.60;;
19127;SDS011;9696;53.686;10.094;2024-01-11T02:26:26;21.80;;;9.57;;
19127;SDS011;9696;53.686;10.094;2024-01-11T02:28:55;16.47;;;7.60;;
19127;SDS011;9696;53.686;10.094;2024-01-11T02:31:27;18.67;;;9.30;;
19127;SDS011;9696;53.686;10.094;2024-01-11T02:33:55;20.40;;;8.90;;
19127;SDS011;9696;53.686;10.094;2024-01-11T02:36:24;16.77;;;7.90;;
19127;SDS011;9696;53.686;10.094;2024-01-11T02:38:54;19.57;;;9.43;;
19127;SDS011;9696;53.686;10.094;2024-01-11T02:41:24;19.07;;;8.67;;
19127;SDS011;9696;53.686;10.094;2024-01-11T02:43:54;17.30;;;8.30;;
19127;SDS011;9696;53.686;10.094;2024-01-11T02:46:22;20.47;;;9.07;;
19127;SDS011;9696;53.686;10.094;2024-01-11T02:48:51;20.17;;;9.27;;
19127;SDS011;9696;53.686;10.094;2024-01-11T02:51:20;22.93;;;9.00;;
19127;SDS011;9696;53.686;10.094;2024-01-11T02:53:48;18.53;;;8.90;;
19127;SDS011;9696;53.686;10.094;2024-01-11T02:56:17;17.83;;;8.57;;
19127;SDS011;9696;53.686;10.094;2024-01-11T02:58:47;20.10;;;8.93;;
19127;SDS011;9696;53.686;10.094;2024-01-11T03:01:16;20.73;;;9.17;;
19127;SDS011;9696;53.686;10.094;2024-01-11T03:03:44;19.07;;;7.67;;
19127;SDS011;9696;53.686;10.094;2024-01-11T03:06:16;17.97;;;8.10;;
19127;SDS011;9696;53.686;10.094;2024-01-11T03:08:48;16.03;;;7.93;;
19127;SDS011;9696;53.686;10.094;2024-01-11T03:11:17;13.10;;;7.37;;
19127;SDS011;9696;53.686;10.094;2024-01-11T03:13:45;17.07;;;7.33;;
19127;SDS011;9696;53.686;10.094;2024-01-11T03:16:15;17.13;;;8.07;;
19127;SDS011;9696;53.686;10.094;2024-01-11T03:18:44;16.50;;;7.63;;
19127;SDS011;9696;53.686;10.094;2024-01-11T03:21:13;16.70;;;7.97;;
19127;SDS011;9696;53.686;10.094;2024-01-11T03:23:41;16.90;;;8.13;;
19127;SDS011;9696;53.686;10.094;2024-01-11T03:26:13;18.70;;;9.20;;
19127;SDS011;9696;53.686;10.094;2024-01-11T03:28:42;17.80;;;7.90;;
19127;SDS011;9696;53.686;10.094;2024-01-11T03:31:11;12.73;;;6.23;;
19127;SDS011;9696;53.686;10.094;2024-01-11T03:33:41;13.20;;;6.77;;
19127;SDS011;9696;53.686;10.094;2024-01-11T03:36:10;17.53;;;7.63;;
19127;SDS011;9696;53.686;10.094;2024-01-11T03:38:39;11.67;;;6.27;;
19127;SDS011;9696;53.686;10.094;2024-01-11T03:41:07;12.47;;;6.63;;
19127;SDS011;9696;53.686;10.094;2024-01-11T03:43:37;14.83;;;7.03;;
19127;SDS011;9696;53.686;10.094;2024-01-11T03:46:05;15.20;;;7.53;;
19127;SDS011;9696;53.686;10.094;2024-01-11T03:48:34;16.97;;;8.20;;
19127;SDS011;9696;53.686;10.094;2024-01-11T03:51:05;14.50;;;7.90;;
19127;SDS011;9696;53.686;10.094;2024-01-11T03:53:34;18.23;;;8.60;;
19127;SDS011;9696;53.686;10.094;2024-01-11T03:56:04;20.63;;;8.93;;
19127;SDS011;9696;53.686;10.094;2024-01-11T03:58:35;14.97;;;7.43;;
19127;SDS011;9696;53.686;10.094;2024-01-11T04:01:06;17.30;;;8.70;;
19127;SDS011;9696;53.686;10.094;2024-01-11T04:03:37;15.77;;;7.90;;
19127;SDS011;9696;53.686;10.094;2024-01-11T04:06:07;17.70;;;8.27;;
19127;SDS011;9696;53.686;10.094;2024-01-11T04:08:36;16.70;;;7.47;;
19127;SDS011;9696;53.686;10.094;2024-01-11T04:11:04;17.30;;;7.97;;
19127;SDS011;9696;53.686;10.094;2024-01-11T04:13:33;17.23;;;7.77;;
19127;SDS011;9696;53.686;10.094;2024-01-11T04:16:03;13.70;;;7.00;;
19127;SDS011;9696;53.686;10.094;2024-01-11T04:18:33;14.87;;;7.37;;
19127;SDS011;9696;53.686;10.094;2024-01-11T04:21:02;15.33;;;7.53;;
19127;SDS011;9696;53.686;10.094;2024-01-11T04:23:32;14.97;;;7.73;;
19127;SDS011;9696;53.686;10.094;2024-01-11T04:26:01;20.07;;;8.43;;
19127;SDS011;9696;53.686;10.094;2024-01-11T04:28:30;15.07;;;7.20;;
19127;SDS011;9696;53.686;10.094;2024-01-11T04:30:58;14.67;;;8.50;;
19127;SDS011;9696;53.686;10.094;2024-01-11T04:33:27;17.17;;;8.50;;
19127;SDS011;9696;53.686;10.094;2024-01-11T04:35:56;17.13;;;8.03;;
19127;SDS011;9696;53.686;10.094;2024-01-11T04:38:24;15.83;;;8.40;;
19127;SDS011;9696;53.686;10.094;2024-01-11T04:40:54;14.87;;;8.07;;
19127;SDS011;9696;53.686;10.094;2024-01-11T04:43:23;17.80;;;8.03;;
19127;SDS011;9696;53.686;10.094;2024-01-11T04:45:52;19.57;;;9.07;;
19127;SDS011;9696;53.686;10.094;2024-01-11T04:48:20;16.63;;;8.00;;
19127;SDS011;9696;53.686;10.094;2024-01-11T04:50:49;16.00;;;7.43;;
19127;SDS011;9696;53.686;10.094;2024-01-11T04:53:18;15.03;;;6.63;;
19127;SDS011;9696;53.686;10.094;2024-01-11T04:55:46;21.10;;;7.67;;
19127;SDS011;9696;53.686;10.094;2024-01-11T04:58:16;17.97;;;7.63;;
19127;SDS011;9696;53.686;10.094;2024-01-11T05:00:45;17.63;;;8.40;;
19127;SDS011;9696;53.686;10.094;2024-01-11T05:03:14;14.87;;;7.53;;
19127;SDS011;9696;53.686;10.094;2024-01-11T05:05:42;18.20;;;8.17;;
19127;SDS011;9696;53.686;10.094;2024-01-11T05:08:11;16.30;;;7.47;;
19127;SDS011;9696;53.686;10.094;2024-01-11T05:10:40;14.33;;;7.53;;
19127;SDS011;9696;53.686;10.094;2024-01-11T05:13:09;16.50;;;7.63;;
19127;SDS011;9696;53.686;10.094;2024-01-11T05:15:39;16.37;;;7.03;;
19127;SDS011;9696;53.686;10.094;2024-01-11T05:18:08;15.50;;;6.73;;
19127;SDS011;9696;53.686;10.094;2024-01-11T05:20:37;15.50;;;6.07;;
19127;SDS011;9696;53.686;10.094;2024-01-11T05:23:06;16.03;;;7.60;;
19127;SDS011;9696;53.686;10.094;2024-01-11T05:25:35;15.23;;;7.20;;
19127;SDS011;9696;53.686;10.094;2024-01-11T05:28:03;15.97;;;7.77;;
19127;SDS011;9696;53.686;10.094;2024-01-11T05:30:32;13.67;;;6.90;;
19127;SDS011;9696;53.686;10.094;2024-01-11T05:33:03;16.23;;;6.60;;
19127;SDS011;9696;53.686;10.094;2024-01-11T05:35:32;12.90;;;7.07;;
19127;SDS011;9696;53.686;10.094;2024-01-11T05:38:01;13.07;;;6.07;;
19127;SDS011;9696;53.686;10.094;2024-01-11T05:40:29;15.57;;;6.33;;
19127;SDS011;9696;53.686;10.094;2024-01-11T05:42:58;12.87;;;6.03;;
19127;SDS011;9696;53.686;10.094;2024-01-11T05:45:26;12.40;;;5.50;;
19127;SDS011;9696;53.686;10.094;2024-01-11T05:48:14;13.23;;;6.20;;
19127;SDS011;9696;53.686;10.094;2024-01-11T05:50:43;10.47;;;5.23;;
19127;SDS011;9696;53.686;10.094;2024-01-11T05:53:12;8.83;;;4.73;;
19127;SDS011;9696;53.686;10.094;2024-01-11T05:55:41;10.50;;;4.30;;
19127;SDS011;9696;53.686;10.094;2024-01-11T05:58:09;10.23;;;4.30;;
19127;SDS011;9696;53.686;10.094;2024-01-11T06:00:38;9.07;;;4.57;;
19127;SDS011;9696;53.686;10.094;2024-01-11T06:03:07;9.60;;;4.53;;
19127;SDS011;9696;53.686;10.094;2024-01-11T06:05:37;9.93;;;5.10;;
19127;SDS011;9696;53.686;10.094;2024-01-11T06:08:06;8.77;;;4.60;;
19127;SDS011;9696;53.686;10.094;2024-01-11T06:10:34;10.13;;;4.43;;
19127;SDS011;9696;53.686;10.094;2024-01-11T06:13:04;9.67;;;3.50;;
19127;SDS011;9696;53.686;10.094;2024-01-11T06:15:32;10.57;;;4.50;;
19127;SDS011;9696;53.686;10.094;2024-01-11T06:18:01;10.33;;;4.30;;
19127;SDS011;9696;53.686;10.094;2024-01-11T06:20:31;12.30;;;3.33;;
19127;SDS011;9696;53.686;10.094;2024-01-11T06:23:01;8.97;;;4.53;;
19127;SDS011;9696;53.686;10.094;2024-01-11T06:25:30;11.30;;;4.03;;
19127;SDS011;9696;53.686;10.094;2024-01-11T06:27:59;8.47;;;3.90;;
19127;SDS011;9696;53.686;10.094;2024-01-11T06:30:27;8.40;;;3.47;;
19127;SDS011;9696;53.686;10.094;2024-01-11T06:32:56;5.90;;;3.00;;
19127;SDS011;9696;53.686;10.094;2024-01-11T06:35:25;6.10;;;3.13;;
19127;SDS011;9696;53.686;10.094;2024-01-11T06:37:54;7.67;;;3.03;;
19127;SDS011;9696;53.686;10.094;2024-01-11T06:40:24;7.07;;;3.97;;
19127;SDS011;9696;53.686;10.094;2024-01-11T06:42:52;8.67;;;3.73;;
19127;SDS011;9696;53.686;10.094;2024-01-11T06:45:22;8.77;;;3.67;;
19127;SDS011;9696;53.686;10.094;2024-01-11T06:47:50;6.60;;;2.73;;
19127;SDS011;9696;53.686;10.094;2024-01-11T06:50:19;9.37;;;3.80;;
19127;SDS011;9696;53.686;10.094;2024-01-11T06:52:48;7.37;;;3.03;;
19127;SDS011;9696;53.686;10.094;2024-01-11T06:55:16;7.03;;;3.23;;
19127;SDS011;9696;53.686;10.094;2024-01-11T06:57:47;5.67;;;2.93;;
19127;SDS011;9696;53.686;10.094;2024-01-11T07:00:16;8.37;;;3.90;;
19127;SDS011;9696;53.686;10.094;2024-01-11T07:02:45;8.43;;;3.57;;
19127;SDS011;9696;53.686;10.094;2024-01-11T07:05:14;8.03;;;3.50;;
19127;SDS011;9696;53.686;10.094;2024-01-11T07:07:42;7.63;;;3.30;;
19127;SDS011;9696;53.686;10.094;2024-01-11T07:10:11;7.40;;;3.43;;
19127;SDS011;9696;53.686;10.094;2024-01-11T07:12:40;9.47;;;4.07;;
19127;SDS011;9696;53.686;10.094;2024-01-11T07:15:11;6.50;;;3.33;;
19127;SDS011;9696;53.686;10.094;2024-01-11T07:17:39;7.43;;;3.50;;
19127;SDS011;9696;53.686;10.094;2024-01-11T07:20:09;8.97;;;3.60;;
19127;SDS011;9696;53.686;10.094;2024-01-11T07:22:38;8.47;;;3.57;;
19127;SDS011;9696;53.686;10.094;2024-01-11T07:25:08;8.83;;;3.63;;
19127;SDS011;9696;53.686;10.094;2024-01-11T07:27:37;6.03;;;3.23;;
19127;SDS011;9696;53.686;10.094;2024-01-11T07:30:06;10.30;;;3.70;;
19127;SDS011;9696;53.686;10.094;2024-01-11T07:32:36;8.23;;;3.17;;
19127;SDS011;9696;53.686;10.094;2024-01-11T07:35:06;7.40;;;3.07;;
19127;SDS011;9696;53.686;10.094;2024-01-11T07:37:41;10.40;;;4.77;;
19127;SDS011;9696;53.686;10.094;2024-01-11T07:40:09;11.40;;;4.10;;
19127;SDS011;9696;53.686;10.094;2024-01-11T07:42:39;13.23;;;4.43;;
19127;SDS011;9696;53.686;10.094;2024-01-11T07:45:08;11.90;;;3.83;;
19127;SDS011;9696;53.686;10.094;2024-01-11T07:47:39;12.07;;;5.13;;
19127;SDS011;9696;53.686;10.094;2024-01-11T07:50:08;9.10;;;4.13;;
19127;SDS011;9696;53.686;10.094;2024-01-11T07:52:37;6.53;;;3.37;;
19127;SDS011;9696;53.686;10.094;2024-01-11T07:55:08;9.23;;;3.77;;
19127;SDS011;9696;53.686;10.094;2024-01-11T07:57:39;6.47;;;2.97;;
19127;SDS011;9696;53.686;10.094;2024-01-11T08:00:08;8.80;;;3.87;;
19127;SDS011;9696;53.686;10.094;2024-01-11T08:02:41;7.53;;;3.50;;
19127;SDS011;9696;53.686;10.094;2024-01-11T08:05:10;23.90;;;4.40;;
19127;SDS011;9696;53.686;10.094;2024-01-11T08:07:38;6.67;;;3.30;;
19127;SDS011;9696;53.686;10.094;2024-01-11T08:10:08;6.87;;;3.50;;
19127;SDS011;9696;53.686;10.094;2024-01-11T08:12:37;6.70;;;3.07;;
19127;SDS011;9696;53.686;10.094;2024-01-11T08:15:06;6.63;;;3.40;;
19127;SDS011;9696;53.686;10.094;2024-01-11T08:17:37;4.43;;;2.70;;
19127;SDS011;9696;53.686;10.094;2024-01-11T08:20:10;7.97;;;3.70;;
19127;SDS011;9696;53.686;10.094;2024-01-11T08:22:39;10.30;;;3.70;;
19127;SDS011;9696;53.686;10.094;2024-01-11T08:25:08;8.27;;;3.83;;
19127;SDS011;9696;53.686;10.094;2024-01-11T08:27:36;12.07;;;3.60;;
19127;SDS011;9696;53.686;10.094;2024-01-11T08:30:05;7.17;;;3.33;;
19127;SDS011;9696;53.686;10.094;2024-01-11T08:32:34;9.30;;;3.40;;
19127;SDS011;9696;53.686;10.094;2024-01-11T08:35:06;10.87;;;3.73;;
19127;SDS011;9696;53.686;10.094;2024-01-11T08:37:38;7.97;;;3.33;;
19127;SDS011;9696;53.686;10.094;2024-01-11T08:40:07;8.57;;;3.90;;
19127;SDS011;9696;53.686;10.094;2024-01-11T08:42:37;11.27;;;4.13;;
19127;SDS011;9696;53.686;10.094;2024-01-11T08:45:09;10.27;;;4.50;;
19127;SDS011;9696;53.686;10.094;2024-01-11T08:47:44;9.07;;;3.63;;
19127;SDS011;9696;53.686;10.094;2024-01-11T08:50:13;9.07;;;3.97;;
19127;SDS011;9696;53.686;10.094;2024-01-11T08:52:46;11.83;;;4.70;;
19127;SDS011;9696;53.686;10.094;2024-01-11T08:55:15;10.50;;;4.13;;
19127;SDS011;9696;53.686;10.094;2024-01-11T08:57:43;11.43;;;4.20;;
19127;SDS011;9696;53.686;10.094;2024-01-11T09:00:12;7.47;;;4.07;;
19127;SDS011;9696;53.686;10.094;2024-01-11T09:02:43;8.30;;;3.37;;
19127;SDS011;9696;53.686;10.094;2024-01-11T09:05:13;10.70;;;3.70;;
19127;SDS011;9696;53.686;10.094;2024-01-11T09:07:42;8.87;;;3.30;;
19127;SDS011;9696;53.686;10.094;2024-01-11T09:10:12;6.87;;;3.40;;
19127;SDS011;9696;53.686;10.094;2024-01-11T09:12:41;10.50;;;3.40;;
19127;SDS011;9696;53.686;10.094;2024-01-11T09:15:10;7.67;;;3.50;;
19127;SDS011;9696;53.686;10.094;2024-01-11T09:17:39;9.00;;;3.93;;
19127;SDS011;9696;53.686;10.094;2024-01-11T09:20:08;7.00;;;3.20;;
19127;SDS011;9696;53.686;10.094;2024-01-11T09:22:40;13.13;;;4.13;;
19127;SDS011;9696;53.686;10.094;2024-01-11T09:25:09;10.97;;;4.37;;
19127;SDS011;9696;53.686;10.094;2024-01-11T09:27:39;10.03;;;4.43;;
19127;SDS011;9696;53.686;10.094;2024-01-11T09:30:08;12.47;;;3.80;;
19127;SDS011;9696;53.686;10.094;2024-01-11T09:32:36;11.83;;;4.07;;
19127;SDS011;9696;53.686;10.094;2024-01-11T09:35:05;10.27;;;3.10;;
19127;SDS011;9696;53.686;10.094;2024-01-11T09:37:38;8.67;;;3.70;;
19127;SDS011;9696;53.686;10.094;2024-01-11T09:40:07;12.00;;;4.07;;
19127;SDS011;9696;53.686;10.094;2024-01-11T09:42:37;13.53;;;4.20;;
19127;SDS011;9696;53.686;10.094;2024-01-11T09:45:09;10.77;;;4.07;;
19127;SDS011;9696;53.686;10.094;2024-01-11T09:47:39;11.07;;;4.37;;
19127;SDS011;9696;53.686;10.094;2024-01-11T09:50:08;13.93;;;4.27;;
19127;SDS011;9696;53.686;10.094;2024-01-11T09:52:37;24.20;;;5.03;;
19127;SDS011;9696;53.686;10.094;2024-01-11T09:55:07;14.67;;;5.40;;
19127;SDS011;9696;53.686;10.094;2024-01-11T09:57:36;15.80;;;5.40;;
19127;SDS011;9696;53.686;10.094;2024-01-11T10:00:05;14.97;;;5.47;;
19127;SDS011;9696;53.686;10.094;2024-01-11T10:02:37;13.30;;;5.20;;
19127;SDS011;9696;53.686;10.094;2024-01-11T10:05:06;14.17;;;5.30;;
19127;SDS011;9696;53.686;10.094;2024-01-11T10:07:37;15.90;;;5.27;;
19127;SDS011;9696;53.686;10.094;2024-01-11T10:10:06;23.03;;;8.63;;
19127;SDS011;9696;53.686;10.094;2024-01-11T10:12:35;20.23;;;8.40;;
19127;SDS011;9696;53.686;10.094;2024-01-11T10:15:07;21.60;;;8.47;;
19127;SDS011;9696;53.686;10.094;2024-01-11T10:17:39;17.80;;;5.97;;
19127;SDS011;9696;53.686;10.094;2024-01-11T10:20:09;17.40;;;5.43;;
19127;SDS011;9696;53.686;10.094;2024-01-11T10:22:40;24.77;;;9.23;;
19127;SDS011;9696;53.686;10.094;2024-01-11T10:25:09;16.17;;;5.93;;
19127;SDS011;9696;53.686;10.094;2024-01-11T10:27:39;17.80;;;5.40;;
19127;SDS011;9696;53.686;10.094;2024-01-11T10:30:10;13.47;;;5.07;;
19127;SDS011;9696;53.686;10.094;2024-01-11T10:32:41;11.23;;;4.67;;
19127;SDS011;9696;53.686;10.094;2024-01-11T10:35:10;26.10;;;6.93;;
19127;SDS011;9696;53.686;10.094;2024-01-11T10:37:39;25.33;;;6.53;;
19127;SDS011;9696;53.686;10.094;2024-01-11T10:40:08;11.63;;;4.60;;
19127;SDS011;9696;53.686;10.094;2024-01-11T10:42:39;16.03;;;5.10;;
19127;SDS011;9696;53.686;10.094;2024-01-11T10:45:10;15.60;;;5.23;;
19127;SDS011;9696;53.686;10.094;2024-01-11T10:47:51;15.53;;;4.53;;
19127;SDS011;9696;53.686;10.094;2024-01-11T10:50:23;14.57;;;5.00;;
19127;SDS011;9696;53.686;10.094;2024-01-11T10:52:56;10.53;;;4.47;;
19127;SDS011;9696;53.686;10.094;2024-01-11T10:55:27;18.23;;;4.40;;
19127;SDS011;9696;53.686;10.094;2024-01-11T10:57:57;13.27;;;4.63;;
19127;SDS011;9696;53.686;10.094;2024-01-11T11:00:26;16.17;;;4.50;;
19127;SDS011;9696;53.686;10.094;2024-01-11T11:02:58;14.77;;;4.33;;
19127;SDS011;9696;53.686;10.094;2024-01-11T11:05:28;20.30;;;4.57;;
19127;SDS011;9696;53.686;10.094;2024-01-11T11:07:58;12.07;;;4.43;;
19127;SDS011;9696;53.686;10.094;2024-01-11T11:10:30;13.13;;;4.20;;
19127;SDS011;9696;53.686;10.094;2024-01-11T11:13:00;19.53;;;5.67;;
19127;SDS011;9696;53.686;10.094;2024-01-11T11:15:29;16.57;;;4.97;;
19127;SDS011;9696;53.686;10.094;2024-01-11T11:17:59;14.37;;;4.93;;
19127;SDS011;9696;53.686;10.094;2024-01-11T11:20:28;11.03;;;4.97;;
19127;SDS011;9696;53.686;10.094;2024-01-11T11:23:04;12.20;;;5.27;;
19127;SDS011;9696;53.686;10.094;2024-01-11T11:25:32;10.93;;;4.27;;
19127;SDS011;9696;53.686;10.094;2024-01-11T11:28:02;10.67;;;3.80;;
19127;SDS011;9696;53.686;10.094;2024-01-11T11:30:32;10.40;;;4.10;;
19127;SDS011;9696;53.686;10.094;2024-01-11T11:33:08;13.00;;;4.73;;
19127;SDS011;9696;53.686;10.094;2024-01-11T11:35:37;15.07;;;5.07;;
19127;SDS011;9696;53.686;10.094;2024-01-11T11:38:07;13.87;;;4.60;;
19127;SDS011;9696;53.686;10.094;2024-01-11T11:40:38;12.57;;;4.27;;
19127;SDS011;9696;53.686;10.094;2024-01-11T11:43:10;14.10;;;5.03;;
19127;SDS011;9696;53.686;10.094;2024-01-11T11:45:40;15.13;;;4.90;;
19127;SDS011;9696;53.686;10.094;2024-01-11T11:51:02;12.67;;;4.67;;
19127;SDS011;9696;53.686;10.094;2024-01-11T11:53:34;12.00;;;4.47;;
19127;SDS011;9696;53.686;10.094;2024-01-11T11:56:04;12.77;;;4.80;;
19127;SDS011;9696;53.686;10.094;2024-01-11T11:58:33;17.13;;;4.97;;
19127;SDS011;9696;53.686;10.094;2024-01-11T12:01:03;13.80;;;4.83;;
19127;SDS011;9696;53.686;10.094;2024-01-11T12:03:32;10.20;;;4.70;;
19127;SDS011;9696;53.686;10.094;2024-01-11T12:06:04;9.90;;;5.10;;
19127;SDS011;9696;53.686;10.094;2024-01-11T12:08:33;11.30;;;5.00;;
19127;SDS011;9696;53.686;10.094;2024-01-11T12:11:03;13.10;;;4.90;;
19127;SDS011;9696;53.686;10.094;2024-01-11T12:13:32;15.80;;;5.73;;
19127;SDS011;9696;53.686;10.094;2024-01-11T12:16:03;16.50;;;5.50;;
19127;SDS011;9696;53.686;10.094;2024-01-11T12:18:32;23.03;;;7.53;;
19127;SDS011;9696;53.686;10.094;2024-01-11T12:21:01;21.70;;;7.40;;
19127;SDS011;9696;53.686;10.094;2024-01-11T12:23:31;12.53;;;5.50;;
19127;SDS011;9696;53.686;10.094;2024-01-11T12:26:01;16.80;;;6.67;;
19127;SDS011;9696;53.686;10.094;2024-01-11T12:28:32;21.43;;;7.47;;
19127;SDS011;9696;53.686;10.094;2024-01-11T12:31:01;17.03;;;5.80;;
19127;SDS011;9696;53.686;10.094;2024-01-11T12:33:30;14.17;;;5.67;;
19127;SDS011;9696;53.686;10.094;2024-01-11T12:36:04;17.67;;;5.67;;
19127;SDS011;9696;53.686;10.094;2024-01-11T12:38:36;13.70;;;5.90;;
19127;SDS011;9696;53.686;10.094;2024-01-11T12:41:06;12.27;;;5.53;;
19127;SDS011;9696;53.686;10.094;2024-01-11T12:43:37;14.57;;;5.83;;
19127;SDS011;9696;53.686;10.094;2024-01-11T12:46:05;13.97;;;5.93;;
19127;SDS011;9696;53.686;10.094;2024-01-11T12:48:34;12.40;;;6.03;;
19127;SDS011;9696;53.686;10.094;2024-01-11T12:51:04;13.93;;;5.43;;
19127;SDS011;9696;53.686;10.094;2024-01-11T12:53:47;12.07;;;5.37;;
19127;SDS011;9696;53.686;10.094;2024-01-11T12:56:16;13.57;;;5.80;;
19127;SDS011;9696;53.686;10.094;2024-01-11T12:58:45;14.47;;;5.43;;
19127;SDS011;9696;53.686;10.094;2024-01-11T13:01:14;17.63;;;5.43;;
19127;SDS011;9696;53.686;10.094;2024-01-11T13:03:44;13.83;;;5.40;;
19127;SDS011;9696;53.686;10.094;2024-01-11T13:06:14;13.80;;;5.33;;
19127;SDS011;9696;53.686;10.094;2024-01-11T13:08:44;10.87;;;4.93;;
19127;SDS011;9696;53.686;10.094;2024-01-11T13:11:14;17.43;;;8.20;;
19127;SDS011;9696;53.686;10.094;2024-01-11T13:13:44;17.10;;;7.37;;
19127;SDS011;9696;53.686;10.094;2024-01-11T13:16:14;14.73;;;6.83;;
19127;SDS011;9696;53.686;10.094;2024-01-11T13:18:45;12.63;;;5.50;;
19127;SDS011;9696;53.686;10.094;2024-01-11T13:21:14;13.00;;;5.40;;
19127;SDS011;9696;53.686;10.094;2024-01-11T13:23:42;11.77;;;5.50;;
19127;SDS011;9696;53.686;10.094;2024-01-11T13:26:11;14.10;;;5.60;;
19127;SDS011;9696;53.686;10.094;2024-01-11T13:28:41;12.33;;;5.23;;
19127;SDS011;9696;53.686;10.094;2024-01-11T13:31:10;16.43;;;5.10;;
19127;SDS011;9696;53.686;10.094;2024-01-11T13:33:39;11.47;;;5.70;;
19127;SDS011;9696;53.686;10.094;2024-01-11T13:36:07;11.93;;;6.00;;
19127;SDS011;9696;53.686;10.094;2024-01-11T13:38:36;17.33;;;6.03;;
19127;SDS011;9696;53.686;10.094;2024-01-11T13:41:05;13.43;;;5.13;;
19127;SDS011;9696;53.686;10.094;2024-01-11T13:43:35;12.57;;;4.93;;
19127;SDS011;9696;53.686;10.094;2024-01-11T13:46:05;14.93;;;5.80;;
19127;SDS011;9696;53.686;10.094;2024-01-11T13:48:33;22.30;;;6.00;;
19127;SDS011;9696;53.686;10.094;2024-01-11T13:51:02;20.20;;;5.73;;
19127;SDS011;9696;53.686;10.094;2024-01-11T13:53:31;11.07;;;4.47;;
19127;SDS011;9696;53.686;10.094;2024-01-11T13:56:00;11.37;;;4.83;;
19127;SDS011;9696;53.686;10.094;2024-01-11T13:58:29;18.33;;;5.47;;
19127;SDS011;9696;53.686;10.094;2024-01-11T14:00:58;15.17;;;5.20;;
19127;SDS011;9696;53.686;10.094;2024-01-11T14:03:28;13.83;;;5.23;;
19127;SDS011;9696;53.686;10.094;2024-01-11T14:05:57;14.87;;;5.73;;
19127;SDS011;9696;53.686;10.094;2024-01-11T14:08:27;13.37;;;5.20;;
19127;SDS011;9696;53.686;10.094;2024-01-11T14:10:55;10.17;;;4.67;;
19127;SDS011;9696;53.686;10.094;2024-01-11T14:13:24;13.30;;;5.13;;
19127;SDS011;9696;53.686;10.094;2024-01-11T14:15:52;15.40;;;4.73;;
19127;SDS011;9696;53.686;10.094;2024-01-11T14:18:21;18.43;;;4.77;;
19127;SDS011;9696;53.686;10.094;2024-01-11T14:20:52;14.80;;;4.53;;
19127;SDS011;9696;53.686;10.094;2024-01-11T14:23:21;20.67;;;5.33;;
19127;SDS011;9696;53.686;10.094;2024-01-11T14:25:49;12.33;;;5.07;;
19127;SDS011;9696;53.686;10.094;2024-01-11T14:28:18;11.03;;;3.53;;
19127;SDS011;9696;53.686;10.094;2024-01-11T14:30:48;10.23;;;3.83;;
19127;SDS011;9696;53.686;10.094;2024-01-11T14:33:16;8.57;;;3.67;;
19127;SDS011;9696;53.686;10.094;2024-01-11T14:35:46;15.77;;;4.70;;
19127;SDS011;9696;53.686;10.094;2024-01-11T14:38:16;14.07;;;3.83;;
19127;SDS011;9696;53.686;10.094;2024-01-11T14:40:45;12.87;;;4.57;;
19127;SDS011;9696;53.686;10.094;2024-01-11T14:43:14;17.00;;;6.03;;
19127;SDS011;9696;53.686;10.094;2024-01-11T14:45:42;15.97;;;6.13;;
19127;SDS011;9696;53.686;10.094;2024-01-11T14:48:11;15.93;;;4.83;;
19127;SDS011;9696;53.686;10.094;2024-01-11T14:50:41;13.23;;;4.87;;
19127;SDS011;9696;53.686;10.094;2024-01-11T14:53:13;9.37;;;4.20;;